Time;durP1;ratioP1;P1;durP2;ratioP2;P2;SDS_P1;SDS_P2;PMS_P1;PMS_P2;Temp;Humidity;BMP_temperature;BMP_pressure;BME280_temperature;BME280_humidity;BME280_pressure;Samples;Min_cycle;Max_cycle;Signal;HPM_P1;HPM_P2
2021/01/30 00:00:31;;;;;;;2.75;1.75;;;8.40;99.90;;;;;;5085041;28;20048;-78
2021/01/30 00:02:58;;;;;;;2.35;0.90;;;8.40;99.90;;;;;;5095097;28;20392;-78
2021/01/30 00:05:26;;;;;;;6.60;1.10;;;8.50;99.90;;;;;;5084044;28;20028;-76
2021/01/30 00:07:53;;;;;;;2.22;0.95;;;8.50;99.90;;;;;;5084016;28;20036;-78
2021/01/30 00:10:20;;;;;;;3.58;1.00;;;8.50;99.90;;;;;;5075362;28;20488;-78
2021/01/30 00:12:47;;;;;;;4.60;0.88;;;8.50;99.90;;;;;;5074850;28;20039;-78
2021/01/30 00:15:16;;;;;;;4.38;1.00;;;8.50;99.90;;;;;;5074805;28;20028;-78
2021/01/30 00:17:43;;;;;;;3.17;0.70;;;8.40;99.90;;;;;;5074580;28;20024;-77
2021/01/30 00:20:12;;;;;;;4.82;1.05;;;8.30;99.90;;;;;;5075034;28;20382;-77
2021/01/30 00:22:39;;;;;;;4.90;0.80;;;8.30;99.90;;;;;;5080231;28;20024;-77
2021/01/30 00:25:06;;;;;;;2.00;0.75;;;8.30;99.90;;;;;;5083597;28;20032;-77
2021/01/30 00:27:32;;;;;;;3.85;1.00;;;8.30;99.90;;;;;;5083562;28;20035;-77
2021/01/30 00:29:59;;;;;;;3.20;1.00;;;8.30;99.90;;;;;;5082608;28;20044;-78
2021/01/30 00:32:25;;;;;;;2.80;1.48;;;8.30;99.90;;;;;;5085799;28;20041;-79
2021/01/30 00:34:51;;;;;;;5.88;1.17;;;8.20;99.90;;;;;;5074246;28;20394;-77
2021/01/30 00:37:24;;;;;;;2.47;0.70;;;8.20;99.90;;;;;;5088055;28;20040;-78
2021/01/30 00:39:53;;;;;;;3.63;1.27;;;8.20;99.90;;;;;;5082123;28;20048;-77
2021/01/30 00:42:22;;;;;;;6.63;1.35;;;8.20;99.90;;;;;;5084527;28;20037;-77
2021/01/30 00:44:50;;;;;;;4.72;1.00;;;8.20;99.90;;;;;;5095684;28;20047;-78
2021/01/30 00:47:16;;;;;;;3.15;0.77;;;8.20;99.90;;;;;;5077748;28;20367;-78
2021/01/30 00:49:44;;;;;;;4.43;1.00;;;8.30;99.90;;;;;;5088088;28;20044;-78
2021/01/30 00:52:14;;;;;;;2.47;0.70;;;8.40;99.90;;;;;;5074307;28;20043;-77
2021/01/30 00:54:44;;;;;;;3.95;1.00;;;8.40;99.90;;;;;;5072575;28;20047;-77
2021/01/30 00:57:10;;;;;;;1.77;0.98;;;8.30;99.90;;;;;;5073767;28;20126;-77
2021/01/30 00:59:37;;;;;;;3.67;0.98;;;8.10;99.90;;;;;;5073150;28;20044;-78
2021/01/30 01:02:04;;;;;;;4.38;1.60;;;8.10;99.90;;;;;;5091822;28;20040;-78
2021/01/30 01:04:41;;;;;;;5.97;0.90;;;8.10;99.90;;;;;;5073407;28;20393;-78
2021/01/30 01:07:07;;;;;;;2.35;1.08;;;8.20;99.90;;;;;;5074090;28;20035;-78
2021/01/30 01:09:33;;;;;;;4.88;1.17;;;8.10;99.90;;;;;;5074213;28;20033;-78
2021/01/30 01:12:00;;;;;;;4.05;0.82;;;8.10;99.90;;;;;;5073778;28;20262;-78
2021/01/30 01:14:26;;;;;;;3.58;1.15;;;8.10;99.90;;;;;;5088704;28;20035;-78
2021/01/30 01:16:53;;;;;;;4.13;1.17;;;8.10;99.90;;;;;;5084610;28;20032;-77
2021/01/30 01:19:20;;;;;;;3.35;1.58;;;8.10;99.90;;;;;;5083087;28;20037;-78
2021/01/30 01:21:52;;;;;;;7.10;1.05;;;8.20;99.90;;;;;;5073546;28;20025;-77
2021/01/30 01:24:20;;;;;;;6.07;1.25;;;8.20;99.90;;;;;;5075532;28;20039;-77
2021/01/30 01:26:48;;;;;;;4.30;1.50;;;8.20;99.90;;;;;;5093901;28;20028;-77
2021/01/30 01:29:16;;;;;;;4.68;1.15;;;8.10;99.90;;;;;;5073878;28;20063;-78
2021/01/30 01:31:43;;;;;;;5.22;1.30;;;8.10;99.90;;;;;;5073360;28;20036;-77
2021/01/30 01:34:09;;;;;;;3.30;1.15;;;8.10;99.90;;;;;;5073654;28;20056;-77
2021/01/30 01:36:35;;;;;;;5.55;1.27;;;8.20;99.90;;;;;;5073580;28;20044;-77
2021/01/30 01:39:03;;;;;;;4.63;1.17;;;8.10;99.90;;;;;;5088084;28;20032;-77
2021/01/30 01:41:29;;;;;;;2.60;1.05;;;8.10;99.90;;;;;;5073701;28;20024;-78
2021/01/30 01:43:55;;;;;;;3.58;1.02;;;8.20;99.90;;;;;;5076809;28;20028;-77
2021/01/30 01:46:28;;;;;;;3.15;1.08;;;8.20;99.90;;;;;;5090536;28;20056;-78
2021/01/30 01:49:02;;;;;;;2.47;0.75;;;8.20;99.90;;;;;;5072900;28;20385;-78
2021/01/30 01:51:34;;;;;;;1.83;0.90;;;8.20;99.90;;;;;;5073425;28;20043;-78
2021/01/30 01:54:05;;;;;;;2.50;0.50;;;8.10;99.90;;;;;;5072573;28;20024;-78
2021/01/30 01:56:34;;;;;;;2.72;0.75;;;8.10;99.90;;;;;;5082887;28;20028;-78
2021/01/30 01:59:05;;;;;;;3.60;0.88;;;8.00;99.90;;;;;;5075210;28;20028;-77
2021/01/30 02:01:34;;;;;;;4.32;0.85;;;8.00;99.90;;;;;;5074444;28;20048;-78
2021/01/30 02:04:01;;;;;;;4.47;1.38;;;8.00;99.90;;;;;;5083277;28;20035;-77
2021/01/30 02:06:28;;;;;;;1.33;0.60;;;8.00;99.90;;;;;;5072774;28;20500;-77
2021/01/30 02:08:55;;;;;;;2.75;0.45;;;8.00;99.90;;;;;;5072672;28;20049;-78
2021/01/30 02:11:21;;;;;;;4.18;1.60;;;7.90;99.90;;;;;;5072937;28;20045;-78
2021/01/30 02:13:52;;;;;;;5.22;1.50;;;8.00;99.90;;;;;;5072347;28;20020;-78
2021/01/30 02:16:42;;;;;;;4.13;2.22;;;8.00;99.90;;;;;;5072765;28;20044;-78
2021/01/30 02:19:23;;;;;;;12.95;6.53;;;8.00;99.90;;;;;;5090086;28;20028;-77
2021/01/30 02:22:27;;;;;;;4.57;1.48;;;7.90;99.90;;;;;;5074715;28;20025;-78
2021/01/30 02:25:30;;;;;;;4.30;1.30;;;7.90;99.90;;;;;;5088595;28;20036;-77
2021/01/30 02:28:34;;;;;;;10.32;4.57;;;7.90;99.90;;;;;;5072062;28;20036;-78
2021/01/30 02:31:40;;;;;;;11.73;4.85;;;7.90;99.90;;;;;;5072093;28;20043;-78
2021/01/30 02:34:23;;;;;;;3.30;1.33;;;7.90;99.90;;;;;;5077468;28;20059;-79
2021/01/30 02:36:54;;;;;;;6.70;1.30;;;7.80;99.90;;;;;;5072312;28;20068;-79
2021/01/30 02:39:49;;;;;;;10.00;3.67;;;7.80;99.90;;;;;;5083324;28;20040;-77
2021/01/30 02:42:29;;;;;;;16.50;6.88;;;7.80;99.90;;;;;;5074163;28;20047;-77
2021/01/30 02:45:07;;;;;;;5.10;1.25;;;7.80;99.90;;;;;;5083558;28;20032;-77
2021/01/30 02:47:39;;;;;;;2.83;1.10;;;7.80;99.90;;;;;;5082429;28;20040;-77
2021/01/30 02:50:29;;;;;;;5.45;1.00;;;7.80;99.90;;;;;;5077070;28;20044;-77
2021/01/30 02:53:00;;;;;;;2.72;0.98;;;7.80;99.90;;;;;;5072018;28;20032;-78
2021/01/30 02:55:27;;;;;;;6.47;2.08;;;7.80;99.90;;;;;;5089494;28;20152;-77
2021/01/30 02:57:55;;;;;;;9.13;3.38;;;7.80;99.90;;;;;;5077808;28;20056;-77
2021/01/30 03:00:24;;;;;;;4.28;1.38;;;7.80;99.90;;;;;;5071928;28;20067;-77
2021/01/30 03:02:51;;;;;;;6.05;1.30;;;7.80;99.90;;;;;;5071896;28;20389;-77
2021/01/30 03:05:18;;;;;;;1.80;0.88;;;7.80;99.90;;;;;;5072662;28;20040;-77
2021/01/30 03:08:03;;;;;;;3.60;0.90;;;7.80;99.90;;;;;;5079646;28;20036;-77
2021/01/30 03:10:52;;;;;;;2.97;0.77;;;7.70;99.90;;;;;;5081800;28;20048;-78
2021/01/30 03:13:31;;;;;;;5.95;1.33;;;7.70;99.90;;;;;;5073038;28;20032;-77
2021/01/30 03:16:03;;;;;;;4.10;0.90;;;7.70;99.90;;;;;;5071899;28;20028;-78
2021/01/30 03:18:38;;;;;;;3.58;1.20;;;7.70;99.90;;;;;;5084869;28;20496;-77
2021/01/30 03:21:07;;;;;;;2.67;0.88;;;7.70;99.90;;;;;;5071391;28;20031;-77
2021/01/30 03:23:35;;;;;;;4.80;2.55;;;7.70;99.90;;;;;;5075776;28;20035;-78
2021/01/30 03:26:03;;;;;;;5.55;1.67;;;7.70;99.90;;;;;;5085279;28;20385;-78
2021/01/30 03:28:30;;;;;;;5.93;2.03;;;7.70;99.90;;;;;;5071790;28;20488;-78
2021/01/30 03:30:56;;;;;;;5.55;1.33;;;7.70;99.90;;;;;;5073988;28;20048;-78
2021/01/30 03:33:23;;;;;;;3.10;0.88;;;7.70;99.90;;;;;;5088414;28;20048;-78
2021/01/30 03:35:49;;;;;;;4.60;1.30;;;7.70;99.90;;;;;;5071512;28;20044;-77
2021/01/30 03:38:15;;;;;;;4.68;1.75;;;7.60;99.90;;;;;;5080302;28;20032;-77
2021/01/30 03:40:43;;;;;;;5.32;1.80;;;7.60;99.90;;;;;;5085838;28;20051;-78
2021/01/30 03:43:09;;;;;;;4.00;1.10;;;7.50;99.90;;;;;;5070324;28;20120;-77
2021/01/30 03:45:36;;;;;;;4.38;2.25;;;7.50;99.90;;;;;;5071853;28;20465;-78
2021/01/30 03:48:03;;;;;;;2.65;0.70;;;7.40;99.90;;;;;;5071355;28;20029;-77
2021/01/30 03:50:29;;;;;;;3.28;0.70;;;7.40;99.90;;;;;;5071758;28;20067;-78
2021/01/30 03:52:56;;;;;;;5.03;0.77;;;7.40;99.90;;;;;;5071312;28;20378;-77
2021/01/30 03:55:23;;;;;;;3.00;0.88;;;7.40;99.90;;;;;;5071679;28;20033;-78
2021/01/30 03:57:50;;;;;;;7.43;1.65;;;7.40;99.90;;;;;;5071149;28;20028;-77
2021/01/30 04:00:22;;;;;;;8.15;1.77;;;7.40;99.90;;;;;;5071841;28;20063;-77
2021/01/30 04:02:49;;;;;;;4.32;1.45;;;7.40;99.90;;;;;;5071132;28;20024;-77
2021/01/30 04:05:18;;;;;;;2.75;1.23;;;7.40;99.90;;;;;;5071820;28;20040;-77
2021/01/30 04:07:45;;;;;;;5.05;1.33;;;7.40;99.90;;;;;;5070208;28;20473;-78
2021/01/30 04:10:16;;;;;;;3.03;1.05;;;7.40;99.90;;;;;;5071554;28;20048;-77
2021/01/30 04:12:43;;;;;;;5.18;1.48;;;7.40;99.90;;;;;;5071572;28;20040;-77
2021/01/30 04:15:21;;;;;;;5.25;1.10;;;7.40;99.90;;;;;;5071303;28;20489;-78
2021/01/30 04:17:47;;;;;;;5.53;2.28;;;7.40;99.90;;;;;;5071239;28;20474;-77
2021/01/30 04:20:13;;;;;;;5.85;1.50;;;7.50;99.90;;;;;;5076152;28;20044;-77
2021/01/30 04:22:40;;;;;;;7.13;1.60;;;7.50;99.90;;;;;;5081004;28;20028;-77
2021/01/30 04:25:06;;;;;;;5.88;1.70;;;7.50;99.90;;;;;;5086250;28;20045;-77
2021/01/30 04:27:33;;;;;;;6.20;1.85;;;7.50;99.90;;;;;;5084499;28;20477;-77
2021/01/30 04:29:59;;;;;;;5.45;1.90;;;7.50;99.90;;;;;;5093359;28;20032;-77
2021/01/30 04:32:25;;;;;;;5.38;1.65;;;7.50;99.90;;;;;;5094162;28;20469;-78
2021/01/30 04:34:52;;;;;;;6.72;1.10;;;7.50;99.90;;;;;;5074719;28;20052;-78
2021/01/30 04:37:18;;;;;;;6.40;1.60;;;7.50;99.90;;;;;;5083147;28;20032;-78
2021/01/30 04:39:44;;;;;;;5.63;1.67;;;7.50;99.90;;;;;;5084382;28;20043;-77
2021/01/30 04:42:20;;;;;;;2.97;1.40;;;7.50;99.90;;;;;;5074794;28;20040;-77
2021/01/30 04:45:03;;;;;;;5.13;1.90;;;7.50;99.90;;;;;;5078720;28;20031;-78
2021/01/30 04:47:52;;;;;;;6.88;1.83;;;7.60;99.90;;;;;;5075836;28;20025;-77
2021/01/30 04:50:54;;;;;;;6.15;1.63;;;7.50;99.90;;;;;;5074659;28;20032;-78
2021/01/30 04:53:42;;;;;;;7.50;1.17;;;7.60;99.90;;;;;;5011405;28;20037;-77
2021/01/30 04:56:22;;;;;;;9.85;1.55;;;7.60;99.90;;;;;;5068615;28;20041;-77
2021/01/30 04:58:57;;;;;;;8.80;1.60;;;7.60;99.90;;;;;;5073968;28;20044;-77
2021/01/30 05:01:54;;;;;;;5.90;1.80;;;7.70;99.90;;;;;;5081373;28;20052;-77
2021/01/30 05:04:33;;;;;;;4.65;1.15;;;7.70;99.90;;;;;;5078710;28;20036;-78
2021/01/30 05:07:09;;;;;;;5.57;1.58;;;7.70;99.90;;;;;;5073886;28;20508;-77
2021/01/30 05:10:06;;;;;;;5.18;1.50;;;7.80;99.90;;;;;;5074285;28;20488;-77
2021/01/30 05:12:57;;;;;;;5.32;1.38;;;7.70;99.90;;;;;;5073913;28;20029;-78
2021/01/30 05:15:35;;;;;;;6.90;1.95;;;7.70;99.90;;;;;;5074026;28;20052;-78
2021/01/30 05:18:06;;;;;;;4.35;1.48;;;7.70;99.90;;;;;;5073733;28;20025;-78
2021/01/30 05:20:36;;;;;;;6.80;2.38;;;7.70;99.90;;;;;;5073762;28;20040;-77
2021/01/30 05:23:05;;;;;;;7.15;1.70;;;7.80;99.90;;;;;;5088795;28;20036;-78
2021/01/30 05:25:32;;;;;;;8.35;1.55;;;7.80;99.90;;;;;;5077037;28;20035;-77
2021/01/30 05:28:25;;;;;;;9.13;1.23;;;7.80;99.90;;;;;;5087855;28;20025;-77
2021/01/30 05:31:21;;;;;;;7.50;1.85;;;7.80;99.90;;;;;;5072249;28;20036;-77
2021/01/30 05:34:09;;;;;;;8.20;1.90;;;7.80;99.90;;;;;;5073209;28;20488;-77
2021/01/30 05:36:43;;;;;;;6.22;1.85;;;7.80;99.90;;;;;;5073571;28;20040;-77
2021/01/30 05:39:31;;;;;;;6.63;2.55;;;7.80;99.90;;;;;;5072990;28;20025;-77
2021/01/30 05:42:22;;;;;;;10.05;3.40;;;7.80;99.90;;;;;;5074492;28;20041;-77
2021/01/30 05:44:52;;;;;;;9.52;1.70;;;7.90;99.90;;;;;;5082447;28;20055;-76
2021/01/30 05:47:27;;;;;;;7.85;2.30;;;7.90;99.90;;;;;;5073601;28;20032;-77
2021/01/30 05:50:26;;;;;;;10.50;2.95;;;7.90;99.90;;;;;;5075015;28;20051;-77
2021/01/30 05:52:55;;;;;;;13.15;2.55;;;7.90;99.90;;;;;;5064300;28;20040;-77
2021/01/30 05:55:30;;;;;;;13.65;2.40;;;7.90;99.90;;;;;;5087458;28;20051;-77
2021/01/30 05:58:02;;;;;;;10.38;3.35;;;7.80;99.90;;;;;;5075995;28;20036;-77
2021/01/30 06:00:28;;;;;;;;;;;7.90;99.90;;;;;;5073064;28;20024;-77
2021/01/30 06:03:15;;;;;;;11.98;2.58;;;7.90;99.90;;;;;;5084658;28;19919;-77
2021/01/30 06:05:45;;;;;;;13.98;3.25;;;7.80;99.90;;;;;;5077902;28;20044;-77
2021/01/30 06:08:17;;;;;;;10.18;2.50;;;7.90;99.90;;;;;;5072323;28;20048;-77
2021/01/30 06:10:44;;;;;;;10.98;2.88;;;7.90;99.90;;;;;;5072811;28;20028;-79
2021/01/30 06:13:25;;;;;;;14.70;3.55;;;7.90;99.90;;;;;;5072550;28;20024;-78
2021/01/30 06:15:58;;;;;;;13.15;3.05;;;7.90;99.90;;;;;;5072364;28;20024;-78
2021/01/30 06:18:37;;;;;;;11.32;2.70;;;7.90;99.90;;;;;;5072957;28;20465;-78
2021/01/30 06:21:11;;;;;;;14.88;3.60;;;8.00;99.90;;;;;;5071853;28;20055;-77
2021/01/30 06:23:39;;;;;;;15.30;3.55;;;8.00;99.90;;;;;;5091091;28;20047;-78
2021/01/30 06:26:20;;;;;;;20.10;3.63;;;8.00;99.90;;;;;;5072753;28;20032;-77
2021/01/30 06:28:57;;;;;;;9.85;2.60;;;8.00;99.90;;;;;;5072723;28;20032;-78
2021/01/30 06:31:31;;;;;;;17.27;3.30;;;8.00;99.90;;;;;;5072329;28;20067;-78
2021/01/30 06:34:14;;;;;;;18.95;3.25;;;8.00;99.90;;;;;;5079362;28;20040;-77
2021/01/30 06:36:48;;;;;;;19.88;3.40;;;7.90;99.90;;;;;;5076095;28;20036;-78
2021/01/30 06:39:26;;;;;;;18.38;3.83;;;7.90;99.90;;;;;;5073722;28;20055;-78
2021/01/30 06:41:55;;;;;;;12.55;3.10;;;7.90;99.90;;;;;;5077237;28;20477;-78
2021/01/30 06:44:27;;;;;;;15.40;3.20;;;7.90;99.90;;;;;;5072603;28;20032;-78
2021/01/30 06:47:11;;;;;;;18.02;3.08;;;7.80;99.90;;;;;;5072251;28;20481;-78
2021/01/30 06:49:45;;;;;;;14.25;2.90;;;7.80;99.90;;;;;;5072720;28;20032;-78
2021/01/30 06:52:23;;;;;;;14.45;3.63;;;7.80;99.90;;;;;;5071917;28;20048;-78
2021/01/30 06:55:11;;;;;;;12.95;2.50;;;7.90;99.90;;;;;;5071930;28;20037;-78
2021/01/30 06:57:45;;;;;;;15.10;2.90;;;7.90;99.90;;;;;;5084281;28;20032;-78
2021/01/30 07:00:17;;;;;;;14.75;2.97;;;7.90;99.90;;;;;;5081401;28;20032;-78
2021/01/30 07:02:46;;;;;;;18.42;3.03;;;7.90;99.90;;;;;;5078221;28;20028;-78
2021/01/30 07:05:21;;;;;;;14.80;3.42;;;7.90;99.90;;;;;;5075625;28;20402;-78
2021/01/30 07:08:06;;;;;;;16.45;3.60;;;7.90;99.90;;;;;;5072348;28;20032;-78
2021/01/30 07:10:43;;;;;;;11.20;2.30;;;7.90;99.90;;;;;;5089628;28;20036;-77
2021/01/30 07:13:46;;;;;;;16.30;3.20;;;7.90;99.90;;;;;;5077186;28;20032;-78
2021/01/30 07:16:44;;;;;;;19.73;5.57;;;7.80;99.90;;;;;;5069904;28;20040;-78
2021/01/30 07:19:39;;;;;;;15.80;3.20;;;7.80;99.90;;;;;;5088668;28;20046;-77
2021/01/30 07:22:10;;;;;;;10.65;2.83;;;7.80;99.90;;;;;;5073465;28;20048;-78
2021/01/30 07:24:57;;;;;;;12.98;3.33;;;7.80;99.90;;;;;;5080237;28;20047;-78
2021/01/30 07:27:37;;;;;;;11.88;3.03;;;7.80;99.90;;;;;;5091638;28;20032;-78
2021/01/30 07:30:11;;;;;;;10.63;3.42;;;7.70;99.90;;;;;;5074548;28;20055;-77
2021/01/30 07:32:42;;;;;;;13.98;2.92;;;7.70;99.90;;;;;;5072363;28;20037;-78
2021/01/30 07:35:16;;;;;;;;;;;7.70;99.90;;;;;;5087884;28;20103;-78
2021/01/30 07:38:10;;;;;;;15.13;3.25;;;7.70;99.90;;;;;;5071768;28;19915;-78
2021/01/30 07:40:38;;;;;;;16.00;3.53;;;7.70;99.90;;;;;;5072109;28;20036;-78
2021/01/30 07:43:22;;;;;;;12.18;2.40;;;7.80;99.90;;;;;;5071653;28;20473;-78
2021/01/30 07:45:58;;;;;;;9.48;2.47;;;7.80;99.90;;;;;;5071985;28;20037;-77
2021/01/30 07:48:28;;;;;;;13.70;2.33;;;7.80;99.90;;;;;;5086580;28;20039;-78
2021/01/30 07:51:00;;;;;;;16.35;2.65;;;7.80;99.90;;;;;;5071568;28;20040;-77
2021/01/30 07:53:27;;;;;;;6.78;1.98;;;7.90;99.90;;;;;;5091282;28;20032;-78
2021/01/30 07:56:00;;;;;;;13.52;2.80;;;7.90;99.90;;;;;;5074758;28;20028;-78
2021/01/30 07:58:37;;;;;;;14.30;3.35;;;7.90;99.90;;;;;;5077921;28;20028;-78
2021/01/30 08:01:30;;;;;;;20.65;4.03;;;8.00;99.90;;;;;;5091786;28;20025;-77
2021/01/30 08:04:26;;;;;;;18.45;4.78;;;8.00;99.90;;;;;;5074955;28;20028;-78
2021/01/30 08:07:04;;;;;;;10.20;3.10;;;8.00;99.90;;;;;;5075197;28;20039;-78
2021/01/30 08:09:47;;;;;;;14.40;3.33;;;8.00;99.90;;;;;;5077780;28;20028;-79
2021/01/30 08:12:23;;;;;;;17.27;3.78;;;8.10;99.90;;;;;;5077546;28;20045;-78
2021/01/30 08:15:03;;;;;;;16.30;3.50;;;8.10;99.90;;;;;;5075339;28;20041;-78
2021/01/30 08:18:07;;;;;;;13.25;3.45;;;8.10;99.90;;;;;;5084256;28;20044;-79
2021/01/30 08:20:37;;;;;;;18.83;3.50;;;8.10;99.90;;;;;;5071256;28;20075;-76
2021/01/30 08:23:46;;;;;;;10.52;3.63;;;8.20;99.90;;;;;;5074550;28;20390;-80
2021/01/30 08:26:15;;;;;;;11.32;3.28;;;8.20;99.90;;;;;;5083776;28;20047;-80
2021/01/30 08:28:57;;;;;;;15.10;4.03;;;8.20;99.90;;;;;;5074774;28;20051;-79
2021/01/30 08:31:35;;;;;;;12.68;3.45;;;8.30;99.90;;;;;;5074794;28;20057;-80
2021/01/30 08:34:08;;;;;;;17.30;4.35;;;8.30;99.90;;;;;;5074106;28;20060;-79
2021/01/30 08:36:42;;;;;;;13.73;3.17;;;8.30;99.90;;;;;;5074919;28;20055;-79
2021/01/30 08:39:30;;;;;;;19.35;4.30;;;8.40;99.90;;;;;;5073895;28;20077;-80
2021/01/30 08:42:13;;;;;;;14.93;4.40;;;8.40;99.90;;;;;;5074347;28;20048;-79
2021/01/30 08:44:48;;;;;;;13.75;3.85;;;8.50;99.90;;;;;;5074971;28;20032;-81
2021/01/30 08:47:22;;;;;;;16.67;3.08;;;8.50;99.90;;;;;;5074083;28;20386;-80
2021/01/30 08:50:06;;;;;;;15.25;3.03;;;8.60;99.90;;;;;;5074856;28;20033;-80
2021/01/30 08:52:36;;;;;;;17.05;3.22;;;8.60;99.90;;;;;;5074898;28;20067;-80
2021/01/30 08:55:43;;;;;;;15.18;4.13;;;8.70;99.90;;;;;;5077147;28;20035;-80
2021/01/30 08:58:37;;;;;;;19.83;3.97;;;8.70;99.90;;;;;;5013025;28;20471;-79
2021/01/30 09:01:19;;;;;;;19.60;6.22;;;8.70;99.90;;;;;;5073324;28;20037;-78
2021/01/30 09:03:54;;;;;;;14.38;3.67;;;8.80;99.90;;;;;;5082427;28;20039;-76
2021/01/30 09:06:39;;;;;;;18.85;3.85;;;8.90;99.90;;;;;;5081824;28;20039;-78
2021/01/30 09:09:23;;;;;;;13.45;3.95;;;8.90;99.90;;;;;;5082424;28;20032;-77
2021/01/30 09:11:59;;;;;;;31.02;10.15;;;8.90;99.90;;;;;;5081597;28;20390;-77
2021/01/30 09:14:25;;;;;;;17.05;4.55;;;8.90;99.90;;;;;;5073704;28;20501;-78
2021/01/30 09:16:54;;;;;;;35.10;13.95;;;8.90;99.90;;;;;;5080946;28;20035;-78
2021/01/30 09:19:59;;;;;;;11.32;3.78;;;8.90;99.90;;;;;;5075483;28;20362;-78
2021/01/30 09:23:08;;;;;;;22.20;9.27;;;9.00;99.90;;;;;;5050916;28;20044;-77
2021/01/30 09:25:51;;;;;;;19.52;6.88;;;9.10;99.90;;;;;;5063548;28;20397;-76
2021/01/30 09:28:25;;;;;;;20.65;6.72;;;9.10;99.90;;;;;;5091697;28;20404;-76
2021/01/30 09:31:05;;;;;;;42.08;15.88;;;9.10;99.90;;;;;;5077597;28;20465;-76
2021/01/30 09:33:40;;;;;;;82.85;40.65;;;9.10;99.90;;;;;;5073759;28;20052;-76
2021/01/30 09:36:17;;;;;;;25.13;9.93;;;9.20;99.90;;;;;;5073342;28;20039;-76
2021/01/30 09:38:47;;;;;;;46.75;21.38;;;9.20;99.90;;;;;;5073763;28;20036;-76
2021/01/30 09:41:23;;;;;;;23.30;7.22;;;9.20;99.90;;;;;;5072825;28;20040;-76
2021/01/30 09:44:04;;;;;;;36.08;13.25;;;9.20;99.90;;;;;;5073391;28;20367;-76
2021/01/30 09:46:36;;;;;;;64.03;27.45;;;9.20;99.90;;;;;;5076631;28;20124;-76
2021/01/30 09:49:09;;;;;;;84.03;39.75;;;9.30;99.90;;;;;;5087855;28;20028;-76
2021/01/30 09:51:41;;;;;;;40.80;16.23;;;9.30;99.90;;;;;;5073274;28;20037;-76
2021/01/30 09:54:11;;;;;;;27.23;11.90;;;9.20;99.90;;;;;;5073049;28;20028;-76
2021/01/30 09:56:38;;;;;;;23.35;5.45;;;9.30;99.90;;;;;;5075294;28;20043;-73
2021/01/30 09:59:06;;;;;;;16.90;4.72;;;9.30;99.90;;;;;;5088424;28;20029;-73
2021/01/30 10:01:39;;;;;;;71.25;31.77;;;9.40;99.90;;;;;;5083300;28;20043;-73
2021/01/30 10:04:22;;;;;;;18.67;5.65;;;9.50;99.90;;;;;;5079502;28;20039;-73
2021/01/30 10:06:51;;;;;;;69.88;35.22;;;9.50;99.90;;;;;;5073109;28;20036;-73
2021/01/30 10:09:21;;;;;;;26.98;10.18;;;9.60;99.90;;;;;;5084557;28;20035;-74
2021/01/30 10:11:56;;;;;;;23.92;7.63;;;9.60;99.90;;;;;;5077943;28;20056;-74
2021/01/30 10:14:33;;;;;;;35.92;16.55;;;9.70;99.90;;;;;;5089850;28;20031;-73
2021/01/30 10:17:07;;;;;;;15.88;5.15;;;9.60;99.90;;;;;;5087475;28;20038;-73
2021/01/30 10:19:36;;;;;;;19.67;5.03;;;9.60;99.90;;;;;;5090980;28;20491;-73
2021/01/30 10:22:16;;;;;;;12.38;5.35;;;9.60;99.90;;;;;;5083941;28;20039;-73
2021/01/30 10:24:43;;;;;;;19.05;4.53;;;9.60;99.90;;;;;;5083589;28;20043;-73
2021/01/30 10:27:15;;;;;;;22.48;7.25;;;9.60;99.90;;;;;;5090769;28;20028;-73
2021/01/30 10:29:41;;;;;;;21.45;5.72;;;9.70;99.90;;;;;;5076510;28;20032;-73
2021/01/30 10:32:22;;;;;;;16.08;3.80;;;9.60;99.90;;;;;;5071651;28;20055;-74
2021/01/30 10:34:59;;;;;;;10.43;3.40;;;9.70;99.90;;;;;;5072878;28;20055;-74
2021/01/30 10:37:48;;;;;;;15.40;3.97;;;9.70;99.90;;;;;;5072795;28;20051;-74
2021/01/30 10:40:38;;;;;;;18.17;3.83;;;9.70;99.90;;;;;;5072355;28;20043;-74
2021/01/30 10:43:17;;;;;;;11.90;3.40;;;9.90;99.90;;;;;;5072431;28;20040;-73
2021/01/30 10:45:51;;;;;;;21.33;4.93;;;10.00;99.90;;;;;;5078386;28;20040;-74
2021/01/30 10:48:22;;;;;;;18.20;5.25;;;10.10;99.90;;;;;;5083742;28;20486;-73
2021/01/30 10:50:49;;;;;;;15.52;3.53;;;10.10;99.90;;;;;;5072392;28;20048;-73
2021/01/30 10:53:23;;;;;;;16.13;5.10;;;10.00;99.90;;;;;;5074546;28;20024;-73
2021/01/30 10:55:51;;;;;;;12.55;2.72;;;9.90;99.90;;;;;;5089930;28;20390;-74
2021/01/30 10:58:32;;;;;;;14.85;3.17;;;9.80;99.90;;;;;;5081550;28;20033;-73
2021/01/30 11:00:58;;;;;;;;;;;9.80;99.90;;;;;;5072102;28;20044;-73
2021/01/30 11:03:27;;;;;;;14.45;2.50;;;9.70;99.90;;;;;;5072155;28;19958;-75
2021/01/30 11:05:54;;;;;;;14.27;2.78;;;9.60;99.90;;;;;;5071923;28;20489;-75
2021/01/30 11:08:29;;;;;;;13.52;3.42;;;9.60;99.90;;;;;;5071772;28;20037;-74
2021/01/30 11:11:01;;;;;;;13.95;3.20;;;9.60;99.90;;;;;;5090588;28;21080;-74
2021/01/30 11:13:39;;;;;;;14.88;3.10;;;9.60;99.90;;;;;;5088532;28;20035;-75
2021/01/30 11:16:15;;;;;;;8.35;2.50;;;9.60;99.90;;;;;;5080093;28;20031;-75
2021/01/30 11:18:51;;;;;;;12.57;3.88;;;9.80;99.90;;;;;;5090602;28;20051;-74
2021/01/30 11:21:36;;;;;;;13.45;3.03;;;9.80;99.90;;;;;;5089699;28;20063;-75
2021/01/30 11:24:48;;;;;;;12.35;3.05;;;9.80;99.90;;;;;;5071569;28;20517;-75
2021/01/30 11:27:30;;;;;;;8.75;1.85;;;9.80;99.90;;;;;;5051854;28;20040;-75
2021/01/30 11:29:57;;;;;;;21.63;3.38;;;9.70;99.90;;;;;;5091272;28;20444;-75
2021/01/30 11:32:24;;;;;;;15.68;2.97;;;9.50;99.90;;;;;;5077334;28;20048;-74
2021/01/30 11:34:57;;;;;;;8.73;2.20;;;9.20;99.90;;;;;;5080349;28;20046;-74
2021/01/30 11:37:24;;;;;;;8.18;2.33;;;8.90;99.90;;;;;;5089176;28;20390;-74
2021/01/30 11:39:50;;;;;;;6.47;2.15;;;8.20;99.90;;;;;;5075810;28;20033;-74
2021/01/30 11:42:17;;;;;;;5.80;2.20;;;7.60;99.90;;;;;;5075181;28;20028;-75
2021/01/30 11:44:43;;;;;;;10.98;2.72;;;7.20;99.90;;;;;;5074868;28;20029;-74
2021/01/30 11:47:09;;;;;;;8.30;2.53;;;6.90;99.90;;;;;;5075370;28;20032;-74
2021/01/30 11:49:36;;;;;;;6.35;2.15;;;6.70;99.90;;;;;;5075808;28;20045;-73
2021/01/30 11:52:02;;;;;;;10.82;2.60;;;6.60;99.90;;;;;;5075226;28;20036;-74
2021/01/30 11:54:28;;;;;;;6.55;2.38;;;6.50;99.90;;;;;;5088880;28;20485;-74
2021/01/30 11:56:54;;;;;;;10.40;2.50;;;6.30;99.90;;;;;;5075322;28;20528;-74
2021/01/30 11:59:21;;;;;;;4.10;2.05;;;6.20;99.90;;;;;;5087495;28;20032;-72
2021/01/30 12:01:47;;;;;;;9.18;3.15;;;6.10;99.90;;;;;;5075202;28;20037;-72
2021/01/30 12:04:13;;;;;;;10.63;3.20;;;6.00;99.90;;;;;;5074896;28;20398;-73
2021/01/30 12:06:40;;;;;;;5.10;1.83;;;6.00;99.90;;;;;;5074190;28;20040;-73
2021/01/30 12:09:07;;;;;;;5.03;1.00;;;5.90;99.90;;;;;;5088018;28;20061;-73
2021/01/30 12:11:33;;;;;;;5.97;1.30;;;5.90;99.90;;;;;;5083252;28;20040;-72
2021/01/30 12:14:00;;;;;;;4.55;1.63;;;5.90;99.90;;;;;;5074638;28;20499;-73
2021/01/30 12:16:27;;;;;;;5.78;1.52;;;5.90;99.90;;;;;;5074891;28;20056;-73
2021/01/30 12:18:53;;;;;;;4.95;2.08;;;5.90;99.90;;;;;;5075127;28;20466;-73
2021/01/30 12:21:19;;;;;;;6.35;2.05;;;5.80;99.90;;;;;;5074478;28;20054;-73
2021/01/30 12:23:46;;;;;;;11.02;1.38;;;5.80;99.90;;;;;;5076938;28;20099;-73
2021/01/30 12:26:18;;;;;;;3.78;1.90;;;5.80;99.90;;;;;;5076017;28;20024;-74
2021/01/30 12:28:44;;;;;;;3.13;1.90;;;5.80;99.90;;;;;;5091293;28;20024;-74
2021/01/30 12:31:11;;;;;;;7.30;3.72;;;5.90;99.90;;;;;;5085039;28;20129;-74
2021/01/30 12:33:37;;;;;;;4.90;2.13;;;6.00;99.90;;;;;;5093514;28;20044;-73
2021/01/30 12:36:04;;;;;;;3.85;1.75;;;5.80;99.90;;;;;;5081199;28;20036;-73
2021/01/30 12:38:32;;;;;;;3.90;1.35;;;5.80;99.90;;;;;;5090574;28;20484;-73
2021/01/30 12:41:00;;;;;;;5.18;1.75;;;5.70;99.90;;;;;;5077781;28;20469;-75
2021/01/30 12:43:27;;;;;;;3.88;1.02;;;5.70;99.90;;;;;;5084024;28;20032;-73
2021/01/30 12:45:53;;;;;;;3.08;1.60;;;5.70;99.90;;;;;;5074659;28;20381;-73
2021/01/30 12:48:19;;;;;;;7.53;2.90;;;5.70;99.90;;;;;;5074419;28;20028;-73
2021/01/30 12:50:46;;;;;;;2.97;1.45;;;5.70;99.90;;;;;;5074590;28;20040;-74
2021/01/30 12:53:12;;;;;;;2.85;1.40;;;5.70;99.90;;;;;;5074256;28;20385;-74
2021/01/30 12:55:41;;;;;;;4.82;1.75;;;5.70;99.90;;;;;;5074426;28;20485;-74
2021/01/30 12:58:23;;;;;;;4.20;2.13;;;5.60;99.90;;;;;;5073574;28;20031;-74
2021/01/30 13:00:50;;;;;;;4.30;2.63;;;5.70;99.90;;;;;;5086194;28;20453;-75
2021/01/30 13:03:17;;;;;;;6.10;2.20;;;5.60;99.90;;;;;;5087296;28;20035;-75
2021/01/30 13:05:44;;;;;;;4.07;2.00;;;5.60;99.90;;;;;;5088603;28;20465;-73
2021/01/30 13:08:11;;;;;;;6.43;2.45;;;5.60;99.90;;;;;;5082104;28;20035;-74
2021/01/30 13:10:37;;;;;;;4.60;2.80;;;5.60;99.90;;;;;;5075327;28;20041;-74
2021/01/30 13:13:04;;;;;;;2.90;1.67;;;5.60;99.90;;;;;;5073647;28;20036;-74
2021/01/30 13:15:31;;;;;;;3.33;1.50;;;5.60;99.90;;;;;;5075366;28;20029;-73
2021/01/30 13:17:58;;;;;;;4.03;1.98;;;5.50;99.90;;;;;;5092193;28;20036;-74
2021/01/30 13:20:25;;;;;;;4.43;2.85;;;5.30;99.90;;;;;;5073922;28;20454;-74
2021/01/30 13:22:51;;;;;;;4.70;2.17;;;5.30;99.90;;;;;;5074176;28;20408;-73
2021/01/30 13:25:18;;;;;;;3.22;2.15;;;5.30;99.90;;;;;;5090827;28;20469;-74
2021/01/30 13:27:45;;;;;;;4.68;2.42;;;5.30;99.90;;;;;;5078485;28;20035;-74